• Join FlightAware (Why Join?)
  • Login
  • US Flag 
06:12AM EST


 

Airport Tracker/Info


-or-


 

Live Flight TrackerFlight Track Log ✈ EGF2767 ✈ 08-Apr-2014 ✈ KLGA - KCHO

Flight Track Log - Related Links

Times and Time Zones

All times are in EDT time to prevent confusion due to time zone crossing. See the EGF2767 flight status page for this flight to view local times or setup timezone preferences in your user account.

Time Position Orientation Groundspeed Altitude Reporting Facility
EDT Latitude Longitude Course Direction KTS MPH feet Rate Location/Type
12:35PM 40.8056 -73.9072 246° West 177 204 1,500  Level New York Center
12:35PM 40.8333 -73.9167 346° North 194 223 2,600 2,348 Climbing New York TRACON
12:36PM 40.8833 -73.9500 333° Northwest 224 258 5,100 2,500 Climbing New York TRACON
12:37PM 40.6908 -74.1183 237° Southwest  Level FlightAware Approximate
12:37PM 40.9333 -74.0000 323° Northwest 235 270 7,600  Level New York TRACON
12:38PM 40.6558 -74.1993 246° West  Level FlightAware Approximate
12:38PM 40.9000 -74.0667 237° Southwest 211 243 9,700  Level New York TRACON
12:39PM 40.6273 -74.2850 246° West  Level FlightAware Approximate
12:40PM 40.5987 -74.3706 246° West  Level FlightAware Approximate
12:40PM 40.8414 -74.1833 236° Southwest 272 313 11,700  Level New York Center
12:41PM 40.7972 -74.2717 237° Southwest 291 335 13,700 1,950 Climbing New York Center
12:42PM 40.7531 -74.3542 235° Southwest 291 335 15,600 2,067 Climbing New York Center
12:44PM 40.6644 -74.5219 235° Southwest 286 329 19,900 2,167 Climbing New York Center
12:45PM 40.6225 -74.5989 234° Southwest 276 318 22,100 1,800 Climbing New York Center
12:46PM 40.5825 -74.6731 235° Southwest 270 311 23,500 1,450 Climbing New York Center
12:47PM 40.5425 -74.7447 234° Southwest 259 298 25,000 1,200 Climbing New York Center
12:48PM 40.5003 -74.8239 235° Southwest 259 298 25,900 500 Climbing New York Center
12:49PM 40.4558 -74.9061 235° Southwest 264 304 26,000 50 Climbing New York Center
12:50PM 40.4067 -74.9958 234° Southwest 287 330 26,000  Level New York Center
12:52PM 40.2861 -75.1625 227° Southwest 314 361 26,000  Level New York Center
12:53PM 40.2267 -75.2456 227° Southwest 320 368 26,000  Level New York Center
12:54PM 40.1717 -75.3208 226° Southwest 325 374 26,000  Level New York Center
12:55PM 40.1119 -75.4067 228° Southwest 325 374 26,000  Level New York Center
12:57PM 39.9906 -75.5747 227° Southwest 325 374 26,000  Level New York Center
12:58PM 39.9308 -75.6600 228° Southwest 330 380 26,000  Level New York Center
12:59PM 39.8772 -75.7456 231° Southwest 330 380 26,000  Level New York Center
01:00PM 39.8192 -75.8358 230° Southwest 325 374 26,000  Level New York Center
01:01PM 39.7611 -75.9261 230° Southwest 325 374 26,000 -593 Level New York Center
01:04PM 39.5744 -76.2214 229° Southwest 321 369 23,400 -821 Descending Washington Center
01:05PM 39.5178 -76.3044 229° Southwest 321 369 22,400 -694 Descending Washington Center
01:06PM 39.4650 -76.3872 230° Southwest 314 361 22,000 -197 Descending Washington Center
01:07PM 39.4144 -76.4728 233° Southwest 309 356 22,000  Level Washington Center
01:08PM 39.3575 -76.5553 228° Southwest 304 350 22,000  Level Washington Center
01:09PM 39.3028 -76.6431 231° Southwest 304 350 22,000  Level Washington Center
01:10PM 39.2667 -76.7000 231° Southwest 334 384 22,000  Level Potomac TRACON
01:11PM 39.2167 -76.7833 232° Southwest 381 438 22,000  Level Potomac TRACON
01:12PM 39.1500 -76.8667 224° Southwest 297 342 22,000  Level Potomac TRACON
01:12PM 39.1333 -76.9108 244° Southwest 307 353 22,000  Level Washington Center
01:13PM 39.0806 -76.9819 226° Southwest 312 359 22,000 -458 Level Washington Center
01:14PM 39.0211 -77.0664 228° Southwest 312 359 21,100 -950 Descending Washington Center
01:15PM 38.9556 -77.1372 220° Southwest 333 383 20,100 -992 Descending Washington Center
01:16PM 38.8900 -77.2078 220° Southwest 333 383 19,100 -1,230 Descending Washington Center
01:17PM 38.8203 -77.2808 219° Southwest 328 377 17,600 -1,785 Descending Washington Center
01:18PM 38.7525 -77.3539 220° Southwest 328 377 15,500 -1,934 Descending Washington Center
01:19PM 38.6825 -77.4319 221° Southwest 328 377 13,700 -1,424 Descending Washington Center
01:20PM 38.6125 -77.5072 220° Southwest 334 384 12,700 -1,008 Descending Washington Center
01:21PM 38.5447 -77.5800 220° Southwest 329 379 11,700 -836 Descending Washington Center
01:22PM 38.4886 -77.6792 234° Southwest 324 373 11,000 -350 Descending Washington Center
01:23PM 38.4475 -77.7761 242° Southwest 314 361 11,000  Level Washington Center
01:24PM 38.4103 -77.8653 242° Southwest 319 367 11,000  Level Washington Center
01:25PM 38.3603 -77.9669 238° Southwest 314 361 11,000  Level Washington Center
01:26PM 38.3208 -78.0714 244° Southwest 314 361 11,000 -99 Level Washington Center
01:27PM 38.2750 -78.1572 236° Southwest 319 367 10,800 -559 Descending Washington Center
01:28PM 38.2358 -78.2431 240° Southwest 319 367 9,900 -1,932 Descending Washington Center
01:29PM 38.1881 -78.3206 232° Southwest 283 326 7,000 -2,331 Descending Washington Center
01:30PM 38.1247 -78.3606 206° Southwest 262 302 5,200 -1,140 Descending Washington Center
01:31PM 38.0656 -78.3928 203° Southwest 250 288 4,700 -992 Descending Washington Center
01:32PM 38.0272 -78.4283 216° Southwest 225 259 3,200 -1,091 Descending Washington Center
01:33PM 38.0322 -78.4786 277° West 172 198 2,500 -715 Descending Washington Center
01:35PM 38.1333 -78.4667 North 169 194 900 -722 Descending Potomac TRACON